Terminal Aerodrome Forecast
Issued by NWS

Home | Current Version | Previous Version | Text Only | Print | Product List | Glossary On
Versions: 1 2 3 4 5 6 7 8 9 10 11 12 13 14
286
FTUS46 KSEW 201728
TAFOLM
TAF
KOLM 201728Z 2018/2118 21005KT P6SM VCSH SCT025 BKN050
      TEMPO 2018/2022 -SHRA BKN020 OVC040
     FM210300 00000KT P6SM SCT015 SCT050
     FM210900 00000KT P6SM BKN012 BKN050=

USA.gov is the U.S. government's official web portal to all federal, state and local government web resources and services.